Time;durP1;ratioP1;P1;durP2;ratioP2;P2;SDS_P1;SDS_P2;PMS_P1;PMS_P2;Temp;Humidity;BMP_temperature;BMP_pressure;BME280_temperature;BME280_humidity;BME280_pressure;Samples;Min_cycle;Max_cycle;Signal;HPM_P1;HPM_P2
2023/06/06 00:01:40;;;;;;;6.70;3.15;;;12.30;99.90;;;;;;4874760;29;20059;-76
2023/06/06 00:04:08;;;;;;;10.45;3.17;;;12.20;99.90;;;;;;4875961;29;20481;-76
2023/06/06 00:06:35;;;;;;;7.50;2.75;;;12.20;99.90;;;;;;4871059;29;20432;-76
2023/06/06 00:09:04;;;;;;;4.47;3.20;;;12.20;99.90;;;;;;4874117;29;20135;-76
2023/06/06 00:11:32;;;;;;;7.65;2.80;;;12.10;99.90;;;;;;4875873;29;20105;-76
2023/06/06 00:14:01;;;;;;;4.70;2.75;;;12.10;99.90;;;;;;4875762;29;20064;-76
2023/06/06 00:16:28;;;;;;;5.53;2.45;;;12.10;99.90;;;;;;4873969;29;20057;-76
2023/06/06 00:18:56;;;;;;;6.53;2.72;;;12.10;99.90;;;;;;4874527;29;20061;-76
2023/06/06 00:21:23;;;;;;;5.47;2.88;;;12.00;99.90;;;;;;4875533;29;20100;-77
2023/06/06 00:23:52;;;;;;;5.03;2.60;;;12.00;99.90;;;;;;4875944;29;20537;-76
2023/06/06 00:26:20;;;;;;;3.75;2.45;;;12.00;99.90;;;;;;4873134;29;20105;-76
2023/06/06 00:28:48;;;;;;;3.95;2.15;;;12.00;99.90;;;;;;4887592;29;20049;-76
2023/06/06 00:31:17;;;;;;;5.93;2.90;;;11.90;99.90;;;;;;4876218;29;20049;-75
2023/06/06 00:33:45;;;;;;;7.45;3.10;;;11.90;99.90;;;;;;4876046;29;20060;-77
2023/06/06 00:36:12;;;;;;;4.78;2.88;;;11.90;99.90;;;;;;4877955;29;20148;-77
2023/06/06 00:38:40;;;;;;;4.03;2.38;;;11.90;99.90;;;;;;4878696;29;20053;-77
2023/06/06 00:41:09;;;;;;;5.20;2.88;;;11.90;99.90;;;;;;4878582;29;20079;-75
2023/06/06 00:43:37;;;;;;;5.13;3.20;;;11.80;99.90;;;;;;4854601;29;20056;-75
2023/06/06 00:46:05;;;;;;;5.32;2.80;;;11.80;99.90;;;;;;4869579;29;20165;-75
2023/06/06 00:48:34;;;;;;;6.38;3.00;;;11.90;99.90;;;;;;4878649;29;20049;-75
2023/06/06 00:51:01;;;;;;;7.10;3.17;;;11.80;99.90;;;;;;4878599;29;20049;-76
2023/06/06 00:53:29;;;;;;;8.30;2.95;;;11.80;99.90;;;;;;4849095;29;20049;-76
2023/06/06 00:55:58;;;;;;;6.63;3.10;;;11.80;99.90;;;;;;4877869;29;20522;-76
2023/06/06 00:58:26;;;;;;;6.20;2.70;;;11.80;99.90;;;;;;4878964;29;20057;-76
2023/06/06 01:00:57;;;;;;;4.65;2.55;;;11.80;99.90;;;;;;4860974;29;20279;-76
2023/06/06 01:03:26;;;;;;;4.35;2.60;;;11.80;99.90;;;;;;4847982;29;20085;-76
2023/06/06 01:05:55;;;;;;;6.05;2.30;;;11.80;99.90;;;;;;4879401;29;20053;-77
2023/06/06 01:08:23;;;;;;;3.25;2.28;;;11.80;99.90;;;;;;4893294;29;20080;-77
2023/06/06 01:11:00;;;;;;;6.03;2.80;;;11.80;99.90;;;;;;4866948;29;20072;-76
2023/06/06 01:13:39;;;;;;;7.38;2.50;;;11.80;99.90;;;;;;4870352;29;20053;-77
2023/06/06 01:16:13;;;;;;;3.65;2.30;;;11.80;99.90;;;;;;4877611;29;20049;-77
2023/06/06 01:18:42;;;;;;;5.38;2.63;;;11.70;99.90;;;;;;4861632;29;20053;-77
2023/06/06 01:21:11;;;;;;;7.05;2.58;;;11.80;99.90;;;;;;4856269;29;20057;-76
2023/06/06 01:23:40;;;;;;;4.88;3.30;;;11.80;99.90;;;;;;4877231;29;20049;-76
2023/06/06 01:26:08;;;;;;;5.25;2.50;;;11.80;99.90;;;;;;4877293;29;20057;-76
2023/06/06 01:28:36;;;;;;;4.65;2.17;;;11.80;99.90;;;;;;4873134;29;20101;-76
2023/06/06 01:31:08;;;;;;;5.15;2.13;;;11.80;99.90;;;;;;4850864;29;20055;-76
2023/06/06 01:33:44;;;;;;;5.47;3.10;;;11.80;99.90;;;;;;4877212;29;20063;-76
2023/06/06 01:36:22;;;;;;;4.78;2.22;;;11.80;99.90;;;;;;4877017;29;20084;-76
2023/06/06 01:38:57;;;;;;;3.88;2.67;;;11.80;99.90;;;;;;4875429;29;20049;-77
2023/06/06 01:41:25;;;;;;;5.40;2.50;;;11.80;99.90;;;;;;4876606;29;20084;-76
2023/06/06 01:43:57;;;;;;;6.38;2.30;;;11.80;99.90;;;;;;4860169;29;20089;-76
2023/06/06 01:46:27;;;;;;;4.63;2.35;;;11.80;99.90;;;;;;4859069;29;20068;-76
2023/06/06 01:48:55;;;;;;;2.83;2.40;;;11.80;99.90;;;;;;4839579;29;20061;-76
2023/06/06 01:51:25;;;;;;;5.78;2.58;;;11.80;99.90;;;;;;4842906;29;20085;-76
2023/06/06 01:53:55;;;;;;;7.18;2.88;;;11.80;99.90;;;;;;4827383;29;20072;-76
2023/06/06 01:56:25;;;;;;;9.75;3.00;;;11.80;99.90;;;;;;4850814;29;20051;-76
2023/06/06 01:58:53;;;;;;;6.28;2.78;;;11.80;99.90;;;;;;4854837;29;20080;-76
2023/06/06 02:01:21;;;;;;;4.28;2.97;;;11.80;99.90;;;;;;4861284;29;20056;-76
2023/06/06 02:03:48;;;;;;;4.20;2.92;;;11.80;99.90;;;;;;4877664;29;20399;-76
2023/06/06 02:06:16;;;;;;;4.35;2.60;;;11.80;99.90;;;;;;4857868;29;20091;-76
2023/06/06 02:08:43;;;;;;;5.97;3.35;;;11.90;99.90;;;;;;4876268;29;20132;-76
2023/06/06 02:11:12;;;;;;;6.55;3.47;;;11.80;99.90;;;;;;4876496;29;20486;-76
2023/06/06 02:13:40;;;;;;;7.82;3.53;;;11.80;99.90;;;;;;4874561;29;20057;-76
2023/06/06 02:16:08;;;;;;;7.45;3.30;;;11.80;99.90;;;;;;4845334;29;20064;-77
2023/06/06 02:18:35;;;;;;;6.72;3.22;;;11.90;99.90;;;;;;4876074;29;20072;-77
2023/06/06 02:21:23;;;;;;;6.70;3.67;;;11.80;99.90;;;;;;4863487;29;20045;-77
2023/06/06 02:23:50;;;;;;;5.60;3.22;;;11.90;99.90;;;;;;4875400;29;20061;-77
2023/06/06 02:26:21;;;;;;;5.13;3.53;;;11.90;99.90;;;;;;4887588;29;20057;-77
2023/06/06 02:28:48;;;;;;;4.85;3.58;;;11.90;99.90;;;;;;4876071;29;20045;-76
2023/06/06 02:31:16;;;;;;;10.13;3.10;;;11.90;99.90;;;;;;4876010;29;20048;-75
2023/06/06 02:33:44;;;;;;;7.25;2.60;;;12.00;99.90;;;;;;4845406;29;20045;-76
2023/06/06 02:36:14;;;;;;;7.28;3.33;;;12.00;99.90;;;;;;4875980;29;20053;-75
2023/06/06 02:38:42;;;;;;;6.75;3.40;;;12.00;99.90;;;;;;4875710;29;20061;-76
2023/06/06 02:41:09;;;;;;;6.45;3.22;;;12.00;99.90;;;;;;4888791;29;20057;-76
2023/06/06 02:43:40;;;;;;;8.70;3.20;;;12.00;99.90;;;;;;4864840;29;20087;-75
2023/06/06 02:46:09;;;;;;;4.60;2.83;;;12.00;99.90;;;;;;4860243;29;20056;-77
2023/06/06 02:48:37;;;;;;;3.58;2.50;;;12.00;99.90;;;;;;4875864;29;20059;-75
2023/06/06 02:51:06;;;;;;;4.72;2.95;;;12.00;99.90;;;;;;4853246;29;20060;-76
2023/06/06 02:53:34;;;;;;;4.45;2.67;;;12.00;99.90;;;;;;4903316;29;20056;-77
2023/06/06 02:56:02;;;;;;;9.73;2.90;;;12.00;99.90;;;;;;4860113;29;20501;-76
2023/06/06 02:58:30;;;;;;;5.10;2.58;;;12.10;99.90;;;;;;4875404;29;20064;-77
2023/06/06 03:01:03;;;;;;;6.57;3.05;;;12.10;99.90;;;;;;4860081;29;20060;-76
2023/06/06 03:03:31;;;;;;;5.40;2.63;;;12.10;99.90;;;;;;4876665;29;20514;-77
2023/06/06 03:06:00;;;;;;;2.40;2.00;;;12.10;99.90;;;;;;4875465;29;20044;-76
2023/06/06 03:08:28;;;;;;;5.60;2.30;;;12.20;99.90;;;;;;4872779;29;20537;-76
2023/06/06 03:10:56;;;;;;;5.15;2.50;;;12.20;99.90;;;;;;4873704;29;20434;-76
2023/06/06 03:13:24;;;;;;;7.10;2.42;;;12.20;99.90;;;;;;4875324;29;20061;-77
2023/06/06 03:15:56;;;;;;;4.57;2.53;;;12.20;99.90;;;;;;4875189;29;20053;-77
2023/06/06 03:18:27;;;;;;;4.18;2.00;;;12.20;99.90;;;;;;4852035;29;20053;-77
2023/06/06 03:21:01;;;;;;;3.20;1.98;;;12.30;99.90;;;;;;4875082;29;20119;-77
2023/06/06 03:23:34;;;;;;;3.22;2.60;;;12.30;99.90;;;;;;4859509;29;20057;-76
2023/06/06 03:26:04;;;;;;;5.93;2.38;;;12.30;99.90;;;;;;4844187;29;20538;-77
2023/06/06 03:28:33;;;;;;;5.72;2.40;;;12.30;99.90;;;;;;4870294;29;20048;-77
2023/06/06 03:31:05;;;;;;;5.80;2.38;;;12.30;99.90;;;;;;4875432;29;20139;-76
2023/06/06 03:33:39;;;;;;;6.68;2.55;;;12.30;99.90;;;;;;4874895;29;20045;-76
2023/06/06 03:36:07;;;;;;;5.78;2.38;;;12.30;99.90;;;;;;4868178;29;20053;-76
2023/06/06 03:38:35;;;;;;;3.03;2.40;;;12.30;99.90;;;;;;4869746;29;20144;-75
2023/06/06 03:41:03;;;;;;;5.75;2.35;;;12.40;99.90;;;;;;4874778;29;20151;-75
2023/06/06 03:43:33;;;;;;;3.95;2.00;;;12.40;99.90;;;;;;4874817;29;20057;-75
2023/06/06 03:46:01;;;;;;;5.13;2.70;;;12.40;99.90;;;;;;4860316;29;20049;-75
2023/06/06 03:48:32;;;;;;;3.50;2.45;;;12.40;99.90;;;;;;4858995;29;20426;-76
2023/06/06 03:51:01;;;;;;;13.10;7.15;;;12.50;99.90;;;;;;4874821;29;20060;-76
2023/06/06 03:53:29;;;;;;;5.55;2.63;;;12.50;99.90;;;;;;4859006;29;20415;-77
2023/06/06 03:55:59;;;;;;;6.97;2.83;;;12.50;99.90;;;;;;4860039;29;20080;-77
2023/06/06 03:58:26;;;;;;;8.65;2.75;;;12.60;99.90;;;;;;4875588;29;20415;-76
2023/06/06 04:00:58;;;;;;;7.78;2.90;;;12.60;99.90;;;;;;4865897;29;20553;-78
2023/06/06 04:03:29;;;;;;;2.97;2.15;;;12.60;99.90;;;;;;4889412;29;20326;-77
2023/06/06 04:05:56;;;;;;;4.68;2.28;;;12.70;99.90;;;;;;4875070;29;20060;-76
2023/06/06 04:08:25;;;;;;;5.30;2.30;;;12.70;99.90;;;;;;4875628;29;20436;-76
2023/06/06 04:10:53;;;;;;;5.85;2.25;;;12.80;99.90;;;;;;4853545;29;20105;-77
2023/06/06 04:13:23;;;;;;;6.20;2.33;;;12.90;99.90;;;;;;4859150;29;20052;-76
2023/06/06 04:15:52;;;;;;;4.32;2.03;;;13.10;99.90;;;;;;4858816;29;20144;-76
2023/06/06 04:18:19;;;;;;;3.28;2.00;;;13.20;99.90;;;;;;4857587;29;20100;-76
2023/06/06 04:20:47;;;;;;;4.55;2.30;;;13.30;99.90;;;;;;4874082;29;20105;-77
2023/06/06 04:23:14;;;;;;;6.53;2.50;;;13.40;99.90;;;;;;4858624;29;20055;-77
2023/06/06 04:25:43;;;;;;;6.50;2.50;;;13.50;99.90;;;;;;4874263;29;20548;-77
2023/06/06 04:28:11;;;;;;;9.43;2.58;;;13.60;99.90;;;;;;4870411;29;20118;-77
2023/06/06 04:30:40;;;;;;;5.28;2.45;;;13.70;99.90;;;;;;4859080;29;20073;-77
2023/06/06 04:33:08;;;;;;;2.65;2.28;;;13.90;99.90;;;;;;4858591;29;20075;-78
2023/06/06 04:35:36;;;;;;;5.55;2.55;;;14.00;99.90;;;;;;4873994;29;20049;-77
2023/06/06 04:38:07;;;;;;;3.80;2.15;;;14.10;99.90;;;;;;4853459;29;20149;-77
2023/06/06 04:40:35;;;;;;;9.52;2.85;;;14.20;99.90;;;;;;4834935;29;20072;-77
2023/06/06 04:43:04;;;;;;;4.43;2.45;;;14.30;99.90;;;;;;4844242;29;20077;-78
2023/06/06 04:45:31;;;;;;;6.72;2.03;;;14.40;99.90;;;;;;4848178;29;20099;-75
2023/06/06 04:47:59;;;;;;;7.97;2.53;;;14.50;99.90;;;;;;4881538;29;20084;-76
2023/06/06 04:50:29;;;;;;;3.88;2.17;;;14.50;99.90;;;;;;4867792;29;20060;-76
2023/06/06 04:52:57;;;;;;;5.55;1.85;;;14.60;99.90;;;;;;4858935;29;20530;-76
2023/06/06 04:55:27;;;;;;;3.67;2.35;;;14.60;99.90;;;;;;4868727;29;20068;-76
2023/06/06 04:57:58;;;;;;;3.63;1.90;;;14.60;99.90;;;;;;4871411;29;20060;-78
2023/06/06 05:00:27;;;;;;;6.55;2.17;;;14.60;99.90;;;;;;4864766;29;20053;-76
2023/06/06 05:02:55;;;;;;;4.95;1.70;;;14.60;99.90;;;;;;4840578;29;20057;-73
2023/06/06 05:05:23;;;;;;;6.78;3.22;;;14.60;99.90;;;;;;4865175;29;20049;-73
2023/06/06 05:07:54;;;;;;;4.75;2.33;;;14.60;99.90;;;;;;4867396;29;20083;-76
2023/06/06 05:10:22;;;;;;;4.70;1.80;;;14.60;99.90;;;;;;4878116;29;20053;-77
2023/06/06 05:12:49;;;;;;;5.53;1.92;;;14.70;99.90;;;;;;4869060;29;20050;-77
2023/06/06 05:15:17;;;;;;;2.15;1.60;;;14.70;99.90;;;;;;4868308;29;20045;-78
2023/06/06 05:17:56;;;;;;;3.53;2.40;;;14.70;99.90;;;;;;4858421;29;20441;-77
2023/06/06 05:20:24;;;;;;;11.48;3.72;;;14.70;99.90;;;;;;4866378;29;20049;-77
2023/06/06 05:22:52;;;;;;;4.05;3.10;;;14.70;99.90;;;;;;4872012;29;20053;-78
2023/06/06 05:25:21;;;;;;;6.65;2.42;;;14.80;99.90;;;;;;4876507;29;20049;-76
2023/06/06 05:27:51;;;;;;;3.85;1.80;;;14.90;99.90;;;;;;4845255;29;20058;-77
2023/06/06 05:30:19;;;;;;;1.80;1.50;;;14.90;99.90;;;;;;4860066;29;20477;-77
2023/06/06 05:32:46;;;;;;;1.98;1.63;;;14.90;99.90;;;;;;4869009;29;20053;-76
2023/06/06 05:35:15;;;;;;;3.63;1.85;;;14.90;99.90;;;;;;4878181;29;20064;-77
2023/06/06 05:37:43;;;;;;;3.10;1.50;;;15.00;99.90;;;;;;4877604;29;20076;-76
2023/06/06 05:40:11;;;;;;;3.88;1.60;;;15.20;99.90;;;;;;4861153;29;20514;-76
2023/06/06 05:42:39;;;;;;;3.33;2.00;;;15.70;99.90;;;;;;4856525;29;20076;-75
2023/06/06 05:45:08;;;;;;;4.38;2.08;;;16.20;99.90;;;;;;4860831;29;20510;-77
2023/06/06 05:47:36;;;;;;;12.82;6.95;;;16.40;99.90;;;;;;4860791;29;20045;-76
2023/06/06 05:50:04;;;;;;;3.05;1.88;;;16.70;99.90;;;;;;4872796;29;20061;-77
2023/06/06 05:52:33;;;;;;;2.55;1.65;;;17.20;99.90;;;;;;4867082;29;20109;-77
2023/06/06 05:55:07;;;;;;;2.53;1.70;;;17.60;99.90;;;;;;4857954;29;20049;-78
2023/06/06 05:57:36;;;;;;;4.80;1.92;;;18.00;99.90;;;;;;4848408;29;20053;-77
2023/06/06 06:00:04;;;;;;;3.40;1.80;;;18.50;99.90;;;;;;4857666;29;20101;-78
2023/06/06 06:02:41;;;;;;;2.03;1.60;;;19.00;99.90;;;;;;4874098;29;20119;-78
2023/06/06 06:05:16;;;;;;;4.50;2.00;;;19.30;99.90;;;;;;4838022;29;20080;-79
2023/06/06 06:07:48;;;;;;;4.40;2.10;;;19.70;99.90;;;;;;4868131;29;20053;-77
2023/06/06 06:10:16;;;;;;;4.75;1.83;;;20.20;99.90;;;;;;4876783;29;20063;-79
2023/06/06 06:12:44;;;;;;;6.22;1.73;;;20.50;99.90;;;;;;4877786;29;20105;-75
2023/06/06 06:15:12;;;;;;;3.22;1.42;;;20.90;99.90;;;;;;4867109;29;20113;-75
2023/06/06 06:17:40;;;;;;;6.57;1.38;;;21.20;94.70;;;;;;4854840;29;20061;-76
2023/06/06 06:20:12;;;;;;;5.28;1.70;;;21.20;94.30;;;;;;4869738;29;20064;-76
2023/06/06 06:22:39;;;;;;;7.45;1.83;;;21.20;93.30;;;;;;4868482;29;20053;-78
2023/06/06 06:25:12;;;;;;;5.35;1.50;;;21.20;93.10;;;;;;4844551;29;20404;-76
2023/06/06 06:27:40;;;;;;;3.55;1.65;;;21.60;91.70;;;;;;4868947;29;20667;-78
2023/06/06 06:30:09;;;;;;;3.50;1.45;;;21.90;90.90;;;;;;4859005;29;20049;-77
2023/06/06 06:32:39;;;;;;;7.93;2.00;;;22.20;90.50;;;;;;4858277;29;20125;-77
2023/06/06 06:35:08;;;;;;;2.75;2.03;;;22.00;86.20;;;;;;4875278;29;20045;-77
2023/06/06 06:37:37;;;;;;;6.55;1.60;;;21.80;85.50;;;;;;4875795;29;20053;-75
2023/06/06 06:40:08;;;;;;;3.63;1.50;;;21.70;85.20;;;;;;4876199;29;20530;-76
2023/06/06 06:42:39;;;;;;;2.75;1.55;;;21.90;84.90;;;;;;4875490;29;20748;-77
2023/06/06 06:45:20;;;;;;;4.53;1.20;;;22.30;85.60;;;;;;4858048;29;20056;-76
2023/06/06 06:47:48;;;;;;;2.85;1.60;;;22.70;82.00;;;;;;4856426;29;20057;-76
2023/06/06 06:50:16;;;;;;;4.30;2.00;;;23.10;79.60;;;;;;4849958;29;20399;-77
2023/06/06 06:52:43;;;;;;;3.50;1.52;;;23.40;78.20;;;;;;4867930;29;20113;-77
2023/06/06 06:55:10;;;;;;;4.97;1.65;;;23.60;75.50;;;;;;4867695;29;20147;-78
2023/06/06 06:57:43;;;;;;;2.85;1.35;;;23.70;73.40;;;;;;4872460;29;20067;-78
2023/06/06 07:00:14;;;;;;;6.13;1.30;;;23.90;70.80;;;;;;4846119;29;20053;-78
2023/06/06 07:02:44;;;;;;;3.38;1.60;;;24.10;70.00;;;;;;4860497;29;20153;-76
2023/06/06 07:05:12;;;;;;;4.97;1.60;;;24.50;69.00;;;;;;4861603;29;20049;-76
2023/06/06 07:07:47;;;;;;;2.33;1.45;;;24.80;67.40;;;;;;4831771;29;20532;-78
2023/06/06 07:10:24;;;;;;;5.28;1.48;;;25.00;66.50;;;;;;4853748;29;20117;-78
2023/06/06 07:12:53;;;;;;;2.85;1.40;;;25.30;64.60;;;;;;4868991;29;20053;-78
2023/06/06 07:15:26;;;;;;;5.00;1.63;;;25.50;65.50;;;;;;4843585;29;20048;-77
2023/06/06 07:17:54;;;;;;;3.40;1.33;;;25.20;62.80;;;;;;4875429;29;20060;-77
2023/06/06 07:20:23;;;;;;;3.85;1.30;;;24.60;62.80;;;;;;4876075;29;20502;-76
2023/06/06 07:22:53;;;;;;;2.67;1.30;;;24.60;61.40;;;;;;4860387;29;20056;-77
2023/06/06 07:25:21;;;;;;;3.53;1.25;;;24.40;60.80;;;;;;4868054;29;20077;-79
2023/06/06 07:27:49;;;;;;;3.22;1.35;;;24.50;61.20;;;;;;4868134;29;20049;-81
2023/06/06 07:30:18;;;;;;;4.13;1.85;;;24.90;59.30;;;;;;4840216;29;20557;-78
2023/06/06 07:32:47;;;;;;;8.25;2.38;;;25.20;59.20;;;;;;4873969;29;20076;-79
2023/06/06 07:35:16;;;;;;;2.85;1.40;;;25.60;58.70;;;;;;4875801;29;20104;-80
2023/06/06 07:37:44;;;;;;;6.93;1.90;;;26.20;55.90;;;;;;4862556;29;20057;-79
2023/06/06 07:40:14;;;;;;;4.00;1.60;;;26.60;54.20;;;;;;4865428;29;20151;-81
2023/06/06 07:42:42;;;;;;;2.38;1.30;;;26.70;54.00;;;;;;4872400;29;20052;-78
2023/06/06 07:45:11;;;;;;;2.60;1.05;;;27.00;53.10;;;;;;4858609;29;20051;-78
2023/06/06 07:47:41;;;;;;;4.13;1.05;;;27.00;52.80;;;;;;4870338;29;20541;-78
2023/06/06 07:50:09;;;;;;;4.45;1.23;;;27.10;53.20;;;;;;4870286;29;20439;-81
2023/06/06 07:52:43;;;;;;;2.05;1.05;;;27.10;51.10;;;;;;4875071;29;20065;-77
2023/06/06 07:55:11;;;;;;;4.10;0.82;;;27.10;50.30;;;;;;4850585;29;20052;-77
2023/06/06 07:57:40;;;;;;;2.60;0.90;;;27.10;50.30;;;;;;4857342;29;20171;-80
2023/06/06 08:00:10;;;;;;;3.08;1.10;;;27.00;50.20;;;;;;4863641;29;20061;-79
2023/06/06 08:02:41;;;;;;;3.90;1.20;;;27.30;51.20;;;;;;4869866;29;20084;-78
2023/06/06 08:05:10;;;;;;;3.88;1.13;;;27.70;48.90;;;;;;4876321;29;20069;-78
2023/06/06 08:07:40;;;;;;;6.10;1.55;;;27.70;48.10;;;;;;4886777;29;20049;-77
2023/06/06 08:10:10;;;;;;;8.85;1.20;;;27.70;49.10;;;;;;4875710;29;20238;-76
2023/06/06 08:12:38;;;;;;;2.38;1.08;;;28.10;48.20;;;;;;4875617;29;20053;-79
2023/06/06 08:15:07;;;;;;;3.05;0.90;;;28.30;46.50;;;;;;4868913;29;20546;-79
2023/06/06 08:17:35;;;;;;;3.53;1.15;;;28.50;46.20;;;;;;4854554;29;20045;-80
2023/06/06 08:20:08;;;;;;;1.92;0.93;;;28.50;46.40;;;;;;4857483;29;20422;-79
2023/06/06 08:22:38;;;;;;;3.65;1.00;;;28.70;46.30;;;;;;4848151;29;20411;-77
2023/06/06 08:25:07;;;;;;;3.15;1.63;;;28.90;46.40;;;;;;4869016;29;20418;-77
2023/06/06 08:27:36;;;;;;;3.47;1.27;;;29.20;46.20;;;;;;4863656;29;20149;-77
2023/06/06 08:30:04;;;;;;;6.35;1.10;;;29.20;44.90;;;;;;4868149;29;20520;-77
2023/06/06 08:32:37;;;;;;;;;;;29.30;43.10;;;;;;4855633;29;20145;-76
2023/06/06 08:35:07;;;;;;;4.90;1.80;;;29.10;43.70;;;;;;4867399;29;19927;-78
2023/06/06 08:37:34;;;;;;;9.30;1.30;;;29.30;45.30;;;;;;4862251;29;20468;-78
2023/06/06 08:40:02;;;;;;;3.92;1.30;;;29.50;44.90;;;;;;4872740;29;20121;-77
2023/06/06 08:42:35;;;;;;;4.33;1.20;;;29.70;45.20;;;;;;4867863;29;20490;-78
2023/06/06 08:45:05;;;;;;;5.07;0.90;;;29.70;42.50;;;;;;4875418;29;20309;-78
2023/06/06 08:47:34;;;;;;;8.13;1.60;;;29.60;42.10;;;;;;4873746;29;20052;-78
2023/06/06 08:50:04;;;;;;;10.80;1.52;;;29.60;42.60;;;;;;4871768;29;20578;-78
2023/06/06 08:52:36;;;;;;;6.13;1.17;;;29.60;42.30;;;;;;4874195;29;20136;-79
2023/06/06 08:55:07;;;;;;;2.15;1.10;;;29.80;42.50;;;;;;4858026;29;20061;-79
2023/06/06 08:57:41;;;;;;;1.30;1.10;;;30.30;42.50;;;;;;4876344;29;20144;-79
2023/06/06 09:00:18;;;;;;;2.47;1.20;;;30.70;41.90;;;;;;4872114;29;20057;-79
2023/06/06 09:02:48;;;;;;;3.40;1.33;;;30.80;39.30;;;;;;4875337;29;20049;-79
2023/06/06 09:05:18;;;;;;;4.75;1.00;;;30.60;38.90;;;;;;4871932;29;20322;-78
2023/06/06 09:07:52;;;;;;;5.80;0.93;;;30.50;39.00;;;;;;4869643;29;20523;-79
2023/06/06 09:10:21;;;;;;;1.95;0.90;;;30.10;39.20;;;;;;4865283;29;20052;-79
2023/06/06 09:12:49;;;;;;;5.22;1.33;;;30.10;39.70;;;;;;4874187;29;20044;-79
2023/06/06 09:15:17;;;;;;;1.92;1.17;;;30.10;39.30;;;;;;4877791;29;20053;-78
2023/06/06 09:17:47;;;;;;;1.58;0.90;;;30.00;39.10;;;;;;4871937;29;20076;-78
2023/06/06 09:20:18;;;;;;;1.15;0.80;;;30.20;37.70;;;;;;4858671;29;20418;-78
2023/06/06 09:22:49;;;;;;;2.83;1.10;;;30.30;38.90;;;;;;4866605;29;20578;-79
2023/06/06 09:25:22;;;;;;;3.60;1.25;;;30.40;37.90;;;;;;4861963;29;20087;-76
2023/06/06 09:27:52;;;;;;;3.22;1.45;;;30.60;37.80;;;;;;4861685;29;20144;-76
2023/06/06 09:30:22;;;;;;;3.15;1.08;;;30.80;38.90;;;;;;4870785;29;20053;-77
2023/06/06 09:32:56;;;;;;;2.67;1.13;;;30.80;37.10;;;;;;4867080;29;20098;-78
2023/06/06 09:35:24;;;;;;;4.05;1.30;;;30.60;37.40;;;;;;4861522;29;20571;-79
2023/06/06 09:37:54;;;;;;;2.40;1.20;;;30.60;38.30;;;;;;4862068;29;20084;-77
2023/06/06 09:40:23;;;;;;;2.47;1.27;;;30.80;38.00;;;;;;4872117;29;20097;-76
2023/06/06 09:42:51;;;;;;;2.60;1.30;;;30.90;37.40;;;;;;4863863;29;20056;-77
2023/06/06 09:45:20;;;;;;;3.05;1.23;;;30.90;37.80;;;;;;4875585;29;20084;-79
2023/06/06 09:47:50;;;;;;;1.65;0.98;;;31.10;36.20;;;;;;4872492;29;20108;-78
2023/06/06 09:50:20;;;;;;;3.53;0.82;;;30.90;36.40;;;;;;4863783;29;20049;-74
2023/06/06 09:52:52;;;;;;;10.80;1.30;;;30.90;37.10;;;;;;4859703;29;20144;-76
2023/06/06 09:55:24;;;;;;;;;;;31.40;36.40;;;;;;4843040;29;20080;-80
2023/06/06 09:57:54;;;;;;;;;;;31.70;36.50;;;;;;4872188;29;20025;-79
2023/06/06 10:00:23;;;;;;;5.03;1.27;;;31.80;35.80;;;;;;4876763;29;19975;-78
2023/06/06 10:02:52;;;;;;;3.03;1.35;;;31.70;35.80;;;;;;4863549;29;20054;-77
2023/06/06 10:05:26;;;;;;;3.00;1.00;;;31.70;35.50;;;;;;4875542;29;20045;-77
2023/06/06 10:07:54;;;;;;;2.60;1.10;;;31.90;35.50;;;;;;4871396;29;20392;-79
2023/06/06 10:10:24;;;;;;;8.32;1.88;;;31.90;35.40;;;;;;4859787;29;20152;-76
2023/06/06 10:12:55;;;;;;;2.13;1.33;;;31.80;34.60;;;;;;4867757;29;20101;-77
2023/06/06 10:15:23;;;;;;;7.43;1.17;;;31.90;36.10;;;;;;4875603;29;20148;-76
2023/06/06 10:17:52;;;;;;;2.55;1.15;;;32.00;36.10;;;;;;4866808;29;20053;-77
2023/06/06 10:20:20;;;;;;;1.75;1.08;;;31.90;35.80;;;;;;4876847;29;20506;-77
2023/06/06 10:22:48;;;;;;;4.20;1.20;;;31.80;35.20;;;;;;4874536;29;20048;-80
2023/06/06 10:25:16;;;;;;;5.75;1.95;;;31.80;35.00;;;;;;4877488;29;20085;-78
2023/06/06 10:28:04;;;;;;;5.30;0.90;;;31.80;35.30;;;;;;4848840;29;20049;-78
2023/06/06 10:30:41;;;;;;;2.45;1.27;;;31.70;35.30;;;;;;4868430;29;20049;-81
2023/06/06 10:33:25;;;;;;;3.67;1.92;;;31.70;34.60;;;;;;4873160;29;20490;-82
2023/06/06 10:35:56;;;;;;;2.08;1.20;;;31.70;34.40;;;;;;4859756;29;20056;-82
2023/06/06 10:38:24;;;;;;;;;;;32.00;34.50;;;;;;4868233;29;20081;-80
2023/06/06 10:40:54;;;;;;;2.50;1.27;;;32.10;34.70;;;;;;4868230;29;20204;-79
2023/06/06 10:43:52;;;;;;;3.03;1.10;;;32.30;35.20;;;;;;4867033;29;20179;-79
2023/06/06 10:46:19;;;;;;;1.85;1.00;;;32.60;34.90;;;;;;4876353;29;20053;-79
2023/06/06 10:48:55;;;;;;;6.20;1.15;;;32.60;34.60;;;;;;4871705;29;20053;-74
2023/06/06 10:51:34;;;;;;;6.88;1.35;;;32.60;35.00;;;;;;4842219;29;20053;-73
2023/06/06 10:54:18;;;;;;;4.20;0.98;;;32.80;35.00;;;;;;4891988;29;20072;-76
2023/06/06 10:56:53;;;;;;;4.55;1.33;;;33.10;35.10;;;;;;4877059;29;20060;-75
2023/06/06 10:59:27;;;;;;;2.00;0.95;;;33.00;34.10;;;;;;4872241;29;20053;-78
2023/06/06 11:01:56;;;;;;;7.03;1.35;;;33.00;33.90;;;;;;4873324;29;20958;-79
2023/06/06 11:04:25;;;;;;;2.15;1.10;;;32.80;34.80;;;;;;4872801;29;20529;-77
2023/06/06 11:06:55;;;;;;;2.25;1.20;;;32.60;35.00;;;;;;4869849;29;20053;-79
2023/06/06 11:09:26;;;;;;;2.38;1.40;;;32.90;34.70;;;;;;4865104;29;20478;-77
2023/06/06 11:12:37;;;;;;;7.35;1.45;;;32.90;35.20;;;;;;4841693;29;20045;-77
2023/06/06 11:15:08;;;;;;;2.20;1.30;;;33.10;35.10;;;;;;4871643;29;20049;-76
2023/06/06 11:17:47;;;;;;;4.53;1.33;;;33.50;35.00;;;;;;4874588;29;20065;-76
2023/06/06 11:20:18;;;;;;;6.15;1.48;;;33.40;35.10;;;;;;4877462;29;20476;-75
2023/06/06 11:22:53;;;;;;;3.47;1.05;;;33.40;35.10;;;;;;4868967;29;20057;-75
2023/06/06 11:25:24;;;;;;;2.40;1.27;;;33.10;34.90;;;;;;4869488;29;20056;-76
2023/06/06 11:27:56;;;;;;;7.07;1.40;;;33.30;35.10;;;;;;4875836;29;20147;-77
2023/06/06 11:30:25;;;;;;;;;;;33.50;35.50;;;;;;4871028;29;20076;-77
2023/06/06 11:32:52;;;;;;;2.40;1.48;;;33.40;35.10;;;;;;4858084;29;20417;-77
2023/06/06 11:35:21;;;;;;;3.70;1.40;;;33.60;34.80;;;;;;4855120;29;20104;-78
2023/06/06 11:37:50;;;;;;;2.67;0.98;;;33.70;35.30;;;;;;4841407;29;20581;-78
2023/06/06 11:40:18;;;;;;;3.15;1.00;;;33.80;34.70;;;;;;4874745;29;20053;-76
2023/06/06 11:42:47;;;;;;;2.38;1.85;;;33.90;34.30;;;;;;4868625;29;20522;-78
2023/06/06 11:45:15;;;;;;;5.45;1.10;;;33.80;34.40;;;;;;4869540;29;20057;-77
2023/06/06 11:47:45;;;;;;;23.25;1.92;;;33.70;34.40;;;;;;4864563;29;20057;-77
2023/06/06 11:50:14;;;;;;;1.50;1.40;;;33.40;35.20;;;;;;4875566;29;20056;-78
2023/06/06 11:52:47;;;;;;;2.47;1.02;;;33.50;34.70;;;;;;4867579;29;20053;-78
2023/06/06 11:55:16;;;;;;;4.93;1.10;;;33.40;34.30;;;;;;4875550;29;20057;-79
2023/06/06 11:57:44;;;;;;;3.70;1.33;;;33.00;34.60;;;;;;4863384;29;20057;-77
2023/06/06 12:00:15;;;;;;;2.60;1.20;;;32.60;34.90;;;;;;4856270;29;20053;-78
2023/06/06 12:02:47;;;;;;;2.25;1.45;;;32.70;35.90;;;;;;4870530;29;20065;-77
2023/06/06 12:05:20;;;;;;;4.15;1.33;;;33.10;35.00;;;;;;4857709;29;20622;-78
2023/06/06 12:07:49;;;;;;;3.10;1.00;;;33.40;34.30;;;;;;4874926;29;20055;-76
2023/06/06 12:10:24;;;;;;;3.58;1.27;;;33.70;34.70;;;;;;4872314;29;20049;-77
2023/06/06 12:12:52;;;;;;;6.65;1.40;;;33.70;34.00;;;;;;4873237;29;20418;-78
2023/06/06 12:15:20;;;;;;;6.65;1.40;;;33.50;33.70;;;;;;4875608;29;20059;-78
2023/06/06 12:17:51;;;;;;;6.15;1.00;;;33.40;34.00;;;;;;4875258;29;20061;-76
2023/06/06 12:20:25;;;;;;;4.03;1.20;;;33.70;33.30;;;;;;4870377;29;20067;-76
2023/06/06 12:22:54;;;;;;;4.40;1.00;;;33.50;34.30;;;;;;4866664;29;20105;-77
2023/06/06 12:25:29;;;;;;;3.20;1.40;;;33.60;33.90;;;;;;4867625;29;20057;-76
2023/06/06 12:28:08;;;;;;;4.00;1.13;;;33.40;33.50;;;;;;4868062;29;20152;-77
2023/06/06 12:30:36;;;;;;;2.50;1.10;;;33.80;34.20;;;;;;4865201;29;20105;-78
2023/06/06 12:33:05;;;;;;;4.90;1.20;;;34.20;33.60;;;;;;4866649;29;20052;-78
2023/06/06 12:35:32;;;;;;;5.50;1.38;;;34.30;33.70;;;;;;4863525;29;20105;-79
2023/06/06 12:38:01;;;;;;;5.05;1.23;;;34.10;33.40;;;;;;4868362;29;20399;-78
2023/06/06 12:40:33;;;;;;;2.63;0.93;;;34.30;32.80;;;;;;4867953;29;20060;-79
2023/06/06 12:43:04;;;;;;;3.05;0.85;;;34.50;34.20;;;;;;4864459;29;20140;-76
2023/06/06 12:45:36;;;;;;;4.55;0.93;;;34.60;33.10;;;;;;4855651;29;20411;-79
2023/06/06 12:48:06;;;;;;;;;;;34.50;33.10;;;;;;4857241;29;20053;-78
2023/06/06 12:50:33;;;;;;;0.98;0.88;;;34.40;33.50;;;;;;4875496;29;20019;-77
2023/06/06 12:53:02;;;;;;;3.08;1.00;;;34.10;33.10;;;;;;4875062;29;20057;-77
2023/06/06 12:55:30;;;;;;;1.33;1.20;;;34.00;33.60;;;;;;4850559;29;20427;-77
2023/06/06 12:57:57;;;;;;;4.78;0.90;;;34.40;33.90;;;;;;4851531;29;20061;-78
2023/06/06 13:00:25;;;;;;;0.80;0.80;;;34.40;32.50;;;;;;4855152;29;20049;-80
2023/06/06 13:02:53;;;;;;;6.93;1.10;;;34.20;32.80;;;;;;4870744;29;20148;-79